createdAt,value
2016-12-07T00:00:25.732Z,18.48
2016-12-07T00:01:35.024Z,18.41
2016-12-07T00:02:44.357Z,18.45
2016-12-07T00:03:53.351Z,18.44
2016-12-07T00:05:02.640Z,18.44
2016-12-07T00:06:11.337Z,18.41
2016-12-07T00:07:20.645Z,18.44
2016-12-07T00:08:29.951Z,18.45
2016-12-07T00:09:38.955Z,18.45
2016-12-07T00:10:48.243Z,18.44
2016-12-07T00:11:57.272Z,18.5
2016-12-07T00:13:05.952Z,18.45
2016-12-07T00:14:15.258Z,18.44
2016-12-07T00:15:24.983Z,18.45
2016-12-07T00:16:34.949Z,18.42
2016-12-07T00:17:43.718Z,18.42
2016-12-07T00:18:52.716Z,18.44
2016-12-07T00:20:01.697Z,18.45
2016-12-07T00:21:11.616Z,18.5
2016-12-07T00:22:20.632Z,18.44
2016-12-07T00:23:29.340Z,18.39
2016-12-07T00:24:38.643Z,18.44
2016-12-07T00:25:47.635Z,18.51
2016-12-07T00:26:56.930Z,18.41
2016-12-07T00:28:05.937Z,18.41
2016-12-07T00:29:15.250Z,18.42
2016-12-07T00:30:24.561Z,18.44
2016-12-07T00:31:33.543Z,18.36
2016-12-07T00:32:42.237Z,18.41
2016-12-07T00:33:51.241Z,18.39
2016-12-07T00:35:00.417Z,18.42
2016-12-07T00:36:09.109Z,18.44
2016-12-07T00:37:18.092Z,18.44
2016-12-07T00:38:27.697Z,18.45
2016-12-07T00:39:37.292Z,18.39
2016-12-07T00:40:46.281Z,18.44
2016-12-07T00:41:55.873Z,18.45
2016-12-07T00:43:05.227Z,18.48
2016-12-07T00:44:13.942Z,18.44
2016-12-07T00:45:23.240Z,18.45
2016-12-07T00:46:31.935Z,18.48
2016-12-07T00:47:41.220Z,18.44
2016-12-07T00:48:50.200Z,18.44
2016-12-07T00:49:58.900Z,18.44
2016-12-07T00:51:07.586Z,18.42
2016-12-07T00:52:16.261Z,18.37
2016-12-07T00:53:25.551Z,18.42
2016-12-07T00:54:34.852Z,18.48
2016-12-07T00:55:43.852Z,18.47
2016-12-07T00:56:52.529Z,18.48
2016-12-07T00:58:01.826Z,18.36
2016-12-07T00:59:11.118Z,18.48
2016-12-07T01:00:20.429Z,18.37
2016-12-07T01:01:29.416Z,18.44
2016-12-07T01:02:38.419Z,18.41
2016-12-07T01:03:47.713Z,18.47
2016-12-07T01:04:56.718Z,18.39
2016-12-07T01:06:06.014Z,18.44
2016-12-07T01:07:14.995Z,18.41
2016-12-07T01:08:23.999Z,18.5
2016-12-07T01:09:32.979Z,18.42
2016-12-07T01:10:41.677Z,18.47
2016-12-07T01:11:50.663Z,18.45
2016-12-07T01:13:00.257Z,18.35
2016-12-07T01:14:08.956Z,18.42
2016-12-07T01:15:17.943Z,18.45
2016-12-07T01:16:26.953Z,18.37
2016-12-07T01:17:36.550Z,18.41
2016-12-07T01:18:45.532Z,18.37
2016-12-07T01:19:55.431Z,18.37
2016-12-07T01:21:04.732Z,18.29
2016-12-07T01:22:14.642Z,18.41
2016-12-07T01:23:23.310Z,18.33
2016-12-07T01:24:32.292Z,18.37
2016-12-07T01:25:40.997Z,18.39
2016-12-07T01:26:49.676Z,18.36
2016-12-07T01:27:59.584Z,18.36
2016-12-07T01:29:08.268Z,18.37
2016-12-07T01:30:17.260Z,18.41
2016-12-07T01:31:26.261Z,18.39
2016-12-07T01:32:35.257Z,18.3
2016-12-07T01:33:44.253Z,18.32
2016-12-07T01:34:52.945Z,18.35
2016-12-07T01:36:01.932Z,18.37
2016-12-07T01:37:10.924Z,18.37
2016-12-07T01:38:19.905Z,18.33
2016-12-07T01:39:28.896Z,18.41
2016-12-07T01:40:37.584Z,18.37
2016-12-07T01:41:46.272Z,18.33
2016-12-07T01:42:55.254Z,18.32
2016-12-07T01:44:04.291Z,18.33
2016-12-07T01:45:12.975Z,18.33
2016-12-07T01:46:21.966Z,18.33
2016-12-07T01:47:30.962Z,18.33
2016-12-07T01:48:40.259Z,18.32
2016-12-07T01:49:48.952Z,18.33
2016-12-07T01:50:57.943Z,18.32
2016-12-07T01:52:06.942Z,18.25
2016-12-07T01:53:15.623Z,18.25
2016-12-07T01:54:24.614Z,18.29
2016-12-07T01:55:33.619Z,18.27
2016-12-07T01:56:42.921Z,18.29
2016-12-07T01:57:52.211Z,18.36
2016-12-07T01:59:00.899Z,18.29
2016-12-07T02:00:09.584Z,18.36
2016-12-07T02:01:18.990Z,18.29
2016-12-07T02:02:27.674Z,18.3
2016-12-07T02:03:36.673Z,18.3
2016-12-07T02:04:45.344Z,18.32
2016-12-07T02:05:54.342Z,18.33
2016-12-07T02:07:03.021Z,18.33
2016-12-07T02:08:12.311Z,18.32
2016-12-07T02:09:21.294Z,18.29
2016-12-07T02:10:30.599Z,18.33
2016-12-07T02:11:39.892Z,18.27
2016-12-07T02:12:48.895Z,18.29
2016-12-07T02:13:58.527Z,18.26
2016-12-07T02:15:07.819Z,18.29
2016-12-07T02:16:16.509Z,18.29
2016-12-07T02:17:25.801Z,18.35
2016-12-07T02:18:34.519Z,18.27
2016-12-07T02:19:43.818Z,18.36
2016-12-07T02:20:52.811Z,18.26
2016-12-07T02:22:01.825Z,18.25
2016-12-07T02:23:10.904Z,18.23
2016-12-07T02:24:19.897Z,18.25
2016-12-07T02:25:28.891Z,18.23
2016-12-07T02:26:37.881Z,18.27
2016-12-07T02:27:46.875Z,18.27
2016-12-07T02:28:56.178Z,18.2
2016-12-07T02:30:05.501Z,18.21
2016-12-07T02:31:14.492Z,18.23
2016-12-07T02:32:23.498Z,18.18
2016-12-07T02:33:32.482Z,18.26
2016-12-07T02:34:42.079Z,18.2
2016-12-07T02:35:50.763Z,18.21
2016-12-07T02:36:59.452Z,18.2
2016-12-07T02:38:08.745Z,18.17
2016-12-07T02:39:17.426Z,18.25
2016-12-07T02:40:26.111Z,18.14
2016-12-07T02:41:34.800Z,18.2
2016-12-07T02:42:43.500Z,18.25
2016-12-07T02:43:52.213Z,18.14
2016-12-07T02:45:01.505Z,18.23
2016-12-07T02:46:10.509Z,18.15
2016-12-07T02:47:19.504Z,18.17
2016-12-07T02:48:28.502Z,18.2
2016-12-07T02:51:17.962Z,18.15
2016-12-07T02:52:27.258Z,18.17
2016-12-07T02:53:35.942Z,18.21
2016-12-07T02:54:44.938Z,18.2
2016-12-07T02:55:54.532Z,18.18
2016-12-07T02:57:03.242Z,18.14
2016-12-07T02:58:12.226Z,18.17
2016-12-07T02:59:21.279Z,18.14
2016-12-07T03:00:30.591Z,18.17
2016-12-07T03:01:39.880Z,18.17
2016-12-07T03:02:49.180Z,18.18
2016-12-07T03:03:58.785Z,18.08
2016-12-07T03:05:07.787Z,18.14
2016-12-07T03:06:17.088Z,18.18
2016-12-07T03:07:25.781Z,18.12
2016-12-07T03:08:34.768Z,18.18
2016-12-07T03:09:44.058Z,18.11
2016-12-07T03:10:53.383Z,18.12
2016-12-07T03:12:02.389Z,18.14
2016-12-07T03:13:12.052Z,18.11
2016-12-07T03:14:20.733Z,18.05
2016-12-07T03:15:30.381Z,18.14
2016-12-07T03:16:39.087Z,18.11
2016-12-07T03:17:47.779Z,18.2
2016-12-07T03:18:56.771Z,18.17
2016-12-07T03:20:06.059Z,18.18
2016-12-07T03:21:14.892Z,18.18
2016-12-07T03:22:23.894Z,18.21
2016-12-07T03:23:33.174Z,18.2
2016-12-07T03:24:42.158Z,18.14
2016-12-07T03:25:50.871Z,18.1
2016-12-07T03:27:00.213Z,18.08
2016-12-07T03:28:08.885Z,18.2
2016-12-07T03:29:17.879Z,18.11
2016-12-07T03:30:26.564Z,18.14
2016-12-07T03:31:35.861Z,18.18
2016-12-07T03:32:45.157Z,18.1
2016-12-07T03:33:54.467Z,18.17
2016-12-07T03:35:03.459Z,18.08
2016-12-07T03:36:12.750Z,18.18
2016-12-07T03:37:21.772Z,18.25
2016-12-07T03:38:30.605Z,18.1
2016-12-07T03:39:40.214Z,18.11
2016-12-07T03:40:49.642Z,18.1
2016-12-07T03:41:58.862Z,18.15
2016-12-07T03:43:07.551Z,18.25
2016-12-07T03:44:17.155Z,18.07
2016-12-07T03:45:26.440Z,18.2
2016-12-07T03:46:35.130Z,18.23
2016-12-07T03:47:44.418Z,18.15
2016-12-07T03:48:53.719Z,18.15
2016-12-07T03:50:02.710Z,18.03
2016-12-07T03:51:11.696Z,18.21
2016-12-07T03:52:20.715Z,18.05
2016-12-07T03:53:29.444Z,18.23
2016-12-07T03:54:38.750Z,18.2
2016-12-07T03:55:48.034Z,18.14
2016-12-07T03:56:57.018Z,18.12
2016-12-07T03:58:06.020Z,18.2
2016-12-07T03:59:15.621Z,18.1
2016-12-07T04:00:24.915Z,18.2
2016-12-07T04:01:33.583Z,18.11
2016-12-07T04:02:42.269Z,18.18
2016-12-07T04:03:51.582Z,18.17
2016-12-07T04:05:00.874Z,18.1
2016-12-07T04:06:10.185Z,18.18
2016-12-07T04:07:19.023Z,18.03
2016-12-07T04:08:28.015Z,18.08
2016-12-07T04:09:37.013Z,18.08
2016-12-07T04:10:45.699Z,18.1
2016-12-07T04:11:54.388Z,18.03
2016-12-07T04:13:03.095Z,18.07
2016-12-07T04:14:11.769Z,18.1
2016-12-07T04:15:20.463Z,18.18
2016-12-07T04:16:29.762Z,18.08
2016-12-07T04:17:39.372Z,18.11
2016-12-07T04:18:48.414Z,18.08
2016-12-07T04:19:57.394Z,18.1
2016-12-07T04:21:06.695Z,18.07
2016-12-07T04:22:15.368Z,18.05
2016-12-07T04:23:24.354Z,18.1
2016-12-07T04:24:33.434Z,18.08
2016-12-07T04:25:42.115Z,18.08
2016-12-07T04:26:51.413Z,18.02
2016-12-07T04:28:00.478Z,17.97
2016-12-07T04:29:09.155Z,18.05
2016-12-07T04:30:17.846Z,18.05
2016-12-07T04:31:26.551Z,18.15
2016-12-07T04:32:35.546Z,18.05
2016-12-07T04:33:45.135Z,18.1
2016-12-07T04:34:54.424Z,18.15
2016-12-07T04:36:03.407Z,18.14
2016-12-07T04:37:12.408Z,18.21
2016-12-07T04:38:21.411Z,18.18
2016-12-07T04:39:30.104Z,18.36
2016-12-07T04:40:39.090Z,18.26
2016-12-07T04:41:48.684Z,18.37
2016-12-07T04:42:57.378Z,18.42
2016-12-07T04:44:06.696Z,18.44
2016-12-07T04:45:15.378Z,18.57
2016-12-07T04:46:24.378Z,18.55
2016-12-07T04:47:33.359Z,18.65
2016-12-07T04:48:42.376Z,18.75
2016-12-07T04:49:51.986Z,18.78
2016-12-07T04:51:00.979Z,18.85
2016-12-07T04:52:10.285Z,18.85
2016-12-07T04:53:19.580Z,18.87
2016-12-07T04:54:28.858Z,18.88
2016-12-07T04:55:37.867Z,18.91
2016-12-07T04:56:47.165Z,18.95
2016-12-07T04:57:56.164Z,18.98
2016-12-07T04:59:05.292Z,19
2016-12-07T05:00:14.588Z,19.1
2016-12-07T05:01:23.578Z,19.08
2016-12-07T05:02:32.553Z,19.22
2016-12-07T05:03:41.537Z,19.29
2016-12-07T05:04:51.475Z,19.23
2016-12-07T05:06:00.773Z,19.4
2016-12-07T05:07:09.456Z,19.39
2016-12-07T05:08:18.459Z,19.47
2016-12-07T05:09:27.440Z,19.44
2016-12-07T05:10:36.433Z,19.54
2016-12-07T05:11:45.114Z,19.51
2016-12-07T05:12:54.402Z,19.61
2016-12-07T05:14:03.386Z,19.65
2016-12-07T05:15:12.372Z,19.63
2016-12-07T05:16:21.688Z,19.66
2016-12-07T05:17:30.668Z,19.74
2016-12-07T05:18:39.963Z,19.71
2016-12-07T05:19:49.276Z,19.77
2016-12-07T05:20:58.593Z,19.78
2016-12-07T05:22:07.607Z,19.84
2016-12-07T05:23:16.593Z,19.92
2016-12-07T05:24:25.270Z,19.95
2016-12-07T05:25:34.268Z,20.03
2016-12-07T05:26:43.269Z,19.95
2016-12-07T05:27:52.572Z,19.99
2016-12-07T05:29:01.558Z,20.02
2016-12-07T05:30:10.558Z,20.06
2016-12-07T05:31:19.851Z,20.08
2016-12-07T05:32:28.837Z,20.13
2016-12-07T05:33:37.963Z,20.17
2016-12-07T05:34:46.644Z,20.21
2016-12-07T05:35:55.325Z,20.14
2016-12-07T05:37:04.007Z,20.24
2016-12-07T05:38:13.604Z,20.31
2016-12-07T05:39:22.644Z,20.24
2016-12-07T05:40:31.933Z,20.41
2016-12-07T05:41:40.955Z,20.38
2016-12-07T05:42:50.264Z,20.41
2016-12-07T05:43:59.255Z,20.41
2016-12-07T05:45:09.156Z,20.43
2016-12-07T05:46:18.476Z,20.43
2016-12-07T05:47:27.459Z,20.52
2016-12-07T05:48:36.448Z,20.42
2016-12-07T05:49:45.427Z,20.51
2016-12-07T05:50:54.581Z,20.58
2016-12-07T05:52:03.574Z,20.5
2016-12-07T05:53:12.254Z,20.57
2016-12-07T05:54:21.252Z,20.66
2016-12-07T05:55:30.249Z,20.61
2016-12-07T05:56:39.835Z,20.69
2016-12-07T05:57:48.837Z,20.7
2016-12-07T05:58:57.819Z,20.72
2016-12-07T06:00:06.816Z,20.74
2016-12-07T06:01:15.801Z,20.7
2016-12-07T06:02:24.888Z,20.72
2016-12-07T06:03:33.575Z,20.66
2016-12-07T06:04:42.596Z,20.67
2016-12-07T06:05:51.577Z,20.72
2016-12-07T06:07:00.562Z,20.82
2016-12-07T06:08:10.811Z,20.79
2016-12-07T06:09:19.798Z,20.8
2016-12-07T06:10:28.792Z,20.77
2016-12-07T06:11:37.478Z,20.79
2016-12-07T06:12:46.761Z,20.87
2016-12-07T06:13:56.053Z,20.84
2016-12-07T06:15:05.676Z,20.85
2016-12-07T06:16:14.978Z,20.95
2016-12-07T06:17:24.286Z,20.97
2016-12-07T06:18:33.576Z,20.94
2016-12-07T06:19:43.181Z,20.98
2016-12-07T06:20:52.192Z,20.99
2016-12-07T06:22:00.917Z,21.03
2016-12-07T06:23:09.908Z,21.1
2016-12-07T06:24:18.903Z,21.04
2016-12-07T06:25:28.198Z,21.17
2016-12-07T06:26:37.209Z,21.14
2016-12-07T06:27:46.202Z,21.24
2016-12-07T06:28:55.489Z,21.17
2016-12-07T06:30:04.488Z,21.19
2016-12-07T06:31:13.530Z,21.27
2016-12-07T06:32:22.546Z,21.31
2016-12-07T06:33:31.538Z,21.28
2016-12-07T06:34:40.518Z,21.35
2016-12-07T06:35:49.837Z,21.43
2016-12-07T06:36:59.214Z,21.44
2016-12-07T06:38:08.271Z,21.42
2016-12-07T06:39:17.886Z,21.46
2016-12-07T06:40:26.880Z,21.43
2016-12-07T06:41:36.169Z,21.49
2016-12-07T06:42:45.515Z,21.49
2016-12-07T06:43:54.518Z,21.49
2016-12-07T06:45:03.814Z,21.5
2016-12-07T06:46:13.138Z,21.54
2016-12-07T06:47:22.154Z,21.52
2016-12-07T06:48:30.990Z,21.52
2016-12-07T06:49:39.713Z,21.58
2016-12-07T06:50:49.007Z,21.49
2016-12-07T06:51:57.737Z,21.53
2016-12-07T06:53:06.438Z,21.5
2016-12-07T06:54:15.742Z,21.52
2016-12-07T06:55:24.739Z,21.44
2016-12-07T06:56:33.730Z,21.42
2016-12-07T06:57:42.722Z,21.44
2016-12-07T06:58:51.408Z,21.47
2016-12-07T07:00:00.547Z,21.35
2016-12-07T07:01:09.577Z,21.38
2016-12-07T07:02:18.263Z,21.35
2016-12-07T07:03:27.259Z,21.28
2016-12-07T07:04:36.248Z,21.28
2016-12-07T07:05:45.351Z,21.25
2016-12-07T07:06:54.356Z,21.22
2016-12-07T07:08:03.650Z,21.13
2016-12-07T07:09:12.942Z,21.13
2016-12-07T07:10:22.241Z,21.13
2016-12-07T07:11:31.372Z,21.09
2016-12-07T07:12:40.384Z,21.1
2016-12-07T07:13:49.767Z,20.97
2016-12-07T07:14:59.054Z,20.98
2016-12-07T07:16:07.742Z,20.94
2016-12-07T07:17:16.742Z,20.89
2016-12-07T07:18:25.447Z,20.91
2016-12-07T07:19:34.128Z,20.91
2016-12-07T07:20:43.734Z,20.79
2016-12-07T07:21:53.361Z,20.77
2016-12-07T07:23:02.505Z,20.8
2016-12-07T07:24:11.837Z,20.72
2016-12-07T07:25:20.821Z,20.66
2016-12-07T07:26:29.820Z,20.74
2016-12-07T07:27:38.533Z,20.72
2016-12-07T07:28:47.826Z,20.67
2016-12-07T07:29:56.517Z,20.64
2016-12-07T07:31:05.510Z,20.66
2016-12-07T07:32:15.145Z,20.59
2016-12-07T07:33:23.829Z,20.55
2016-12-07T07:34:33.314Z,20.55
2016-12-07T07:35:42.303Z,20.43
2016-12-07T07:36:51.316Z,20.51
2016-12-07T07:38:00.001Z,20.39
2016-12-07T07:39:09.306Z,20.36
2016-12-07T07:40:18.915Z,20.29
2016-12-07T07:41:27.656Z,20.39
2016-12-07T07:42:36.449Z,20.29
2016-12-07T07:43:45.800Z,20.24
2016-12-07T07:44:54.500Z,20.21
2016-12-07T07:46:03.626Z,20.21
2016-12-07T07:47:12.619Z,20.17
2016-12-07T07:48:21.347Z,20.18
2016-12-07T07:49:30.999Z,20.2
2016-12-07T07:50:39.712Z,20.17
2016-12-07T07:51:48.901Z,20.21
2016-12-07T07:52:58.002Z,20.1
2016-12-07T07:54:07.411Z,20.1
2016-12-07T07:55:16.110Z,20.08
2016-12-07T07:56:24.857Z,20.08
2016-12-07T07:57:34.373Z,20.01
2016-12-07T07:58:43.713Z,20.05
2016-12-07T07:59:52.411Z,20.03
2016-12-07T08:01:01.416Z,19.95
2016-12-07T08:02:10.121Z,20.03
2016-12-07T08:03:19.734Z,20.01
2016-12-07T08:04:29.082Z,19.96
2016-12-07T08:05:38.379Z,19.94
2016-12-07T08:06:47.092Z,19.86
2016-12-07T08:07:55.812Z,19.84
2016-12-07T08:09:04.815Z,19.84
2016-12-07T08:10:13.888Z,19.83
2016-12-07T08:11:22.576Z,19.81
2016-12-07T08:12:31.885Z,19.84
2016-12-07T08:13:41.184Z,19.77
2016-12-07T08:14:50.780Z,19.73
2016-12-07T08:15:59.787Z,19.76
2016-12-07T08:17:08.812Z,19.76
2016-12-07T08:18:18.138Z,19.74
2016-12-07T08:19:27.451Z,19.66
2016-12-07T08:20:36.746Z,19.71
2016-12-07T08:21:45.734Z,19.71
2016-12-07T08:22:55.061Z,19.68
2016-12-07T08:24:03.747Z,19.68
2016-12-07T08:25:12.432Z,19.63
2016-12-07T08:26:21.156Z,19.69
2016-12-07T08:27:29.864Z,19.68
2016-12-07T08:28:38.886Z,19.65
2016-12-07T08:29:48.195Z,19.66
2016-12-07T08:30:57.517Z,19.62
2016-12-07T08:32:06.871Z,19.69
2016-12-07T08:33:16.492Z,19.61
2016-12-07T08:34:25.818Z,19.59
2016-12-07T08:35:35.126Z,19.63
2016-12-07T08:36:44.126Z,19.58
2016-12-07T08:37:53.278Z,19.55
2016-12-07T08:39:02.003Z,19.63
2016-12-07T08:40:11.004Z,19.61
2016-12-07T08:41:20.328Z,19.62
2016-12-07T08:42:29.026Z,19.55
2016-12-07T08:43:38.179Z,19.56
2016-12-07T08:44:46.898Z,19.59
2016-12-07T08:45:56.208Z,19.63
2016-12-07T08:47:05.201Z,19.58
2016-12-07T08:48:13.896Z,19.55
2016-12-07T08:49:23.495Z,19.56
2016-12-07T08:50:32.789Z,19.56
2016-12-07T08:51:41.483Z,19.56
2016-12-07T08:52:50.474Z,19.5
2016-12-07T08:53:59.184Z,19.55
2016-12-07T08:55:07.979Z,19.56
2016-12-07T08:56:17.278Z,19.55
2016-12-07T08:57:25.961Z,19.56
2016-12-07T08:58:35.608Z,19.5
2016-12-07T08:59:44.635Z,19.41
2016-12-07T09:00:54.053Z,19.51
2016-12-07T09:02:03.360Z,19.56
2016-12-07T09:03:12.356Z,19.46
2016-12-07T09:04:21.357Z,19.47
2016-12-07T09:05:30.352Z,19.51
2016-12-07T09:06:39.356Z,19.5
2016-12-07T09:07:48.049Z,19.51
2016-12-07T09:08:57.044Z,19.54
2016-12-07T09:10:06.648Z,19.43
2016-12-07T09:11:15.971Z,19.48
2016-12-07T09:12:24.824Z,19.58
2016-12-07T09:13:34.740Z,19.44
2016-12-07T09:14:43.741Z,19.47
2016-12-07T09:15:52.427Z,19.47
2016-12-07T09:17:01.422Z,19.48
2016-12-07T09:18:10.877Z,19.5
2016-12-07T09:19:19.877Z,19.54
2016-12-07T09:20:28.872Z,19.43
2016-12-07T09:21:38.498Z,19.47
2016-12-07T09:22:47.186Z,19.47
2016-12-07T09:23:56.627Z,19.48
2016-12-07T09:25:05.614Z,19.5
2016-12-07T09:26:14.928Z,19.46
2016-12-07T09:27:24.243Z,19.46
2016-12-07T09:28:32.937Z,19.46
2016-12-07T09:29:42.644Z,19.47
2016-12-07T09:30:51.326Z,19.47
2016-12-07T09:32:00.309Z,19.43
2016-12-07T09:33:09.328Z,19.47
2016-12-07T09:34:18.625Z,19.46
2016-12-07T09:35:27.622Z,19.51
2016-12-07T09:36:36.612Z,19.43
2016-12-07T09:37:45.648Z,19.41
2016-12-07T09:38:54.669Z,19.5
2016-12-07T09:40:03.696Z,19.56
2016-12-07T09:41:13.319Z,19.43
2016-12-07T09:42:22.314Z,19.43
2016-12-07T09:43:31.639Z,19.41
2016-12-07T09:44:40.641Z,19.5
2016-12-07T09:45:49.994Z,19.41
2016-12-07T09:46:59.310Z,19.41
2016-12-07T09:48:08.612Z,19.44
2016-12-07T09:49:17.614Z,19.41
2016-12-07T09:50:26.632Z,19.47
2016-12-07T09:51:36.544Z,19.41
2016-12-07T09:52:46.043Z,19.4
2016-12-07T09:53:54.740Z,19.44
2016-12-07T09:55:03.759Z,19.44
2016-12-07T09:56:12.444Z,19.41
2016-12-07T09:57:21.766Z,19.48
2016-12-07T09:58:30.831Z,19.47
2016-12-07T09:59:39.532Z,19.44
2016-12-07T10:00:48.530Z,19.47
2016-12-07T10:01:57.842Z,19.47
2016-12-07T10:03:06.839Z,19.47
2016-12-07T10:04:16.492Z,19.48
2016-12-07T10:05:25.179Z,19.46
2016-12-07T10:06:34.170Z,19.46
2016-12-07T10:07:43.183Z,19.46
2016-12-07T10:08:51.878Z,19.46
2016-12-07T10:10:00.626Z,19.41
2016-12-07T10:11:09.655Z,19.44
2016-12-07T10:12:18.349Z,19.44
2016-12-07T10:13:27.049Z,19.36
2016-12-07T10:14:36.372Z,19.46
2016-12-07T10:15:45.115Z,19.43
2016-12-07T10:16:54.131Z,19.36
2016-12-07T10:18:02.850Z,19.51
2016-12-07T10:19:11.856Z,19.46
2016-12-07T10:20:20.857Z,19.44
2016-12-07T10:21:29.851Z,19.41
2016-12-07T10:22:38.851Z,19.39
2016-12-07T10:23:47.577Z,19.44
2016-12-07T10:24:56.592Z,19.5
2016-12-07T10:26:05.890Z,19.47
2016-12-07T10:27:15.795Z,19.46
2016-12-07T10:28:24.489Z,19.44
2016-12-07T10:29:33.491Z,19.44
2016-12-07T10:30:43.105Z,19.46
2016-12-07T10:31:52.096Z,19.47
2016-12-07T10:33:01.711Z,19.48
2016-12-07T10:34:11.323Z,19.5
2016-12-07T10:35:20.018Z,19.37
2016-12-07T10:36:29.336Z,19.48
2016-12-07T10:37:38.328Z,19.48
2016-12-07T10:38:47.421Z,19.51
2016-12-07T10:39:56.410Z,19.5
2016-12-07T10:41:05.739Z,19.47
2016-12-07T10:42:14.732Z,19.47
2016-12-07T10:43:23.399Z,19.46
2016-12-07T10:44:32.098Z,19.48
2016-12-07T10:45:40.804Z,19.41
2016-12-07T10:46:50.419Z,19.46
2016-12-07T10:47:59.440Z,19.5
2016-12-07T10:49:08.761Z,19.43
2016-12-07T10:50:18.072Z,19.44
2016-12-07T10:51:27.089Z,19.48
2016-12-07T10:52:36.403Z,19.47
2016-12-07T10:53:45.119Z,19.55
2016-12-07T10:54:54.457Z,19.44
2016-12-07T10:56:04.094Z,19.4
2016-12-07T10:57:13.099Z,19.5
2016-12-07T10:58:21.807Z,19.51
2016-12-07T10:59:30.519Z,19.51
2016-12-07T11:00:39.560Z,19.47
2016-12-07T11:01:49.274Z,19.51
2016-12-07T11:02:57.979Z,19.47
2016-12-07T11:04:07.306Z,19.43
2016-12-07T11:05:16.356Z,19.44
2016-12-07T11:06:25.346Z,19.4
2016-12-07T11:07:35.552Z,19.46
2016-12-07T11:08:44.320Z,19.51
2016-12-07T11:09:53.067Z,19.5
2016-12-07T11:11:02.687Z,19.4
2016-12-07T11:12:11.681Z,19.39
2016-12-07T11:13:20.680Z,19.48
2016-12-07T11:14:29.713Z,19.48
2016-12-07T11:15:38.788Z,19.37
2016-12-07T11:16:48.092Z,19.36
2016-12-07T11:17:57.105Z,19.37
2016-12-07T11:19:06.447Z,19.4
2016-12-07T11:20:15.155Z,19.5
2016-12-07T11:21:24.191Z,19.36
2016-12-07T11:22:32.883Z,19.46
2016-12-07T11:23:42.172Z,19.39
2016-12-07T11:24:51.800Z,19.47
2016-12-07T11:26:00.511Z,19.48
2016-12-07T11:27:09.536Z,19.36
2016-12-07T11:28:18.547Z,19.39
2016-12-07T11:29:27.858Z,19.39
2016-12-07T11:30:36.570Z,19.32
2016-12-07T11:31:46.176Z,19.41
2016-12-07T11:32:54.861Z,19.41
2016-12-07T11:34:03.908Z,19.32
2016-12-07T11:35:12.900Z,19.43
2016-12-07T11:36:21.687Z,19.47
2016-12-07T11:37:30.382Z,19.44
2016-12-07T11:38:39.083Z,19.37
2016-12-07T11:39:48.072Z,19.39
2016-12-07T11:40:57.098Z,19.39
2016-12-07T11:42:06.725Z,19.33
2016-12-07T11:43:15.747Z,19.48
2016-12-07T11:44:24.751Z,19.32
2016-12-07T11:45:33.447Z,19.4
2016-12-07T11:46:42.481Z,19.36
2016-12-07T11:47:52.241Z,19.36
2016-12-07T11:49:02.203Z,19.4
2016-12-07T11:50:11.502Z,19.33
2016-12-07T11:51:20.518Z,19.37
2016-12-07T11:52:29.519Z,19.33
2016-12-07T11:53:38.974Z,19.37
2016-12-07T11:54:47.707Z,19.39
2016-12-07T11:55:56.715Z,19.29
2016-12-07T11:57:05.412Z,19.37
2016-12-07T11:58:14.764Z,19.39
2016-12-07T11:59:24.352Z,19.39
2016-12-07T12:00:33.367Z,19.37
2016-12-07T12:01:42.379Z,19.33
2016-12-07T12:02:52.029Z,19.33
2016-12-07T12:04:00.741Z,19.41
2016-12-07T12:05:09.749Z,19.39
2016-12-07T12:06:18.798Z,19.46
2016-12-07T12:07:27.481Z,19.37
2016-12-07T12:08:36.468Z,19.36
2016-12-07T12:09:45.159Z,19.29
2016-12-07T12:10:53.879Z,19.41
2016-12-07T12:12:02.617Z,19.39
2016-12-07T12:13:11.620Z,19.39
2016-12-07T12:14:20.619Z,19.41
2016-12-07T12:15:29.623Z,19.36
2016-12-07T12:16:39.217Z,19.39
2016-12-07T12:17:47.922Z,19.4
2016-12-07T12:18:56.929Z,19.26
2016-12-07T12:20:05.927Z,19.4
2016-12-07T12:21:14.671Z,19.39
2016-12-07T12:22:23.402Z,19.36
2016-12-07T12:23:32.427Z,19.32
2016-12-07T12:24:41.438Z,19.26
2016-12-07T12:25:50.474Z,19.28
2016-12-07T12:26:59.842Z,19.32
2016-12-07T12:28:09.143Z,19.31
2016-12-07T12:29:18.439Z,19.28
2016-12-07T12:30:27.141Z,19.25
2016-12-07T12:31:35.825Z,19.29
2016-12-07T12:32:44.813Z,19.26
2016-12-07T12:33:54.123Z,19.29
2016-12-07T12:35:02.814Z,19.28
2016-12-07T12:36:12.135Z,19.25
2016-12-07T12:37:21.130Z,19.28
2016-12-07T12:38:30.124Z,19.26
2016-12-07T12:39:39.107Z,19.28
2016-12-07T12:40:47.809Z,19.26
2016-12-07T12:41:57.108Z,19.28
2016-12-07T12:43:06.419Z,19.28
2016-12-07T12:44:15.422Z,19.29
2016-12-07T12:45:24.112Z,19.29
2016-12-07T12:46:33.111Z,19.25
2016-12-07T12:47:41.787Z,19.28
2016-12-07T12:48:50.492Z,19.25
2016-12-07T12:49:59.485Z,19.23
2016-12-07T12:51:08.625Z,19.26
2016-12-07T12:52:17.939Z,19.26
2016-12-07T12:53:26.937Z,19.29
2016-12-07T12:54:35.949Z,19.28
2016-12-07T12:55:44.947Z,19.31
2016-12-07T12:56:54.033Z,19.32
2016-12-07T12:58:03.043Z,19.29
2016-12-07T12:59:11.738Z,19.31
2016-12-07T13:00:20.430Z,19.23
2016-12-07T13:01:30.384Z,19.29
2016-12-07T13:02:39.692Z,19.26
2016-12-07T13:03:48.680Z,19.28
2016-12-07T13:04:57.373Z,19.29
2016-12-07T13:06:06.391Z,19.29
2016-12-07T13:07:15.097Z,19.26
2016-12-07T13:08:25.069Z,19.23
2016-12-07T13:09:33.759Z,19.31
2016-12-07T13:10:42.756Z,19.31
2016-12-07T13:11:52.380Z,19.26
2016-12-07T13:13:02.365Z,19.25
2016-12-07T13:14:11.532Z,19.28
2016-12-07T13:15:20.534Z,19.26
2016-12-07T13:16:29.230Z,19.28
2016-12-07T13:17:38.557Z,19.23
2016-12-07T13:18:47.847Z,19.28
2016-12-07T13:19:56.591Z,19.22
2016-12-07T13:21:05.903Z,19.25
2016-12-07T13:22:15.251Z,19.23
2016-12-07T13:23:24.255Z,19.25
2016-12-07T13:24:33.254Z,19.29
2016-12-07T13:25:42.723Z,19.22
2016-12-07T13:26:51.750Z,19.25
2016-12-07T13:28:00.757Z,19.28
2016-12-07T13:29:09.450Z,19.31
2016-12-07T13:30:18.756Z,19.23
2016-12-07T13:31:28.101Z,19.33
2016-12-07T13:32:37.424Z,19.26
2016-12-07T13:33:46.161Z,19.31
2016-12-07T13:34:55.153Z,19.26
2016-12-07T13:36:03.862Z,19.21
2016-12-07T13:37:12.948Z,19.25
2016-12-07T13:38:21.943Z,19.25
2016-12-07T13:39:30.641Z,19.28
2016-12-07T13:40:39.686Z,19.28
2016-12-07T13:41:49.014Z,19.23
2016-12-07T13:42:58.294Z,19.32
2016-12-07T13:44:07.299Z,19.22
2016-12-07T13:45:16.285Z,19.22
2016-12-07T13:46:25.588Z,19.31
2016-12-07T13:47:34.911Z,19.31
2016-12-07T13:48:44.386Z,19.29
2016-12-07T13:49:53.707Z,19.31
2016-12-07T13:51:02.396Z,19.31
2016-12-07T13:52:12.309Z,19.25
2016-12-07T13:53:21.318Z,19.32
2016-12-07T13:54:30.360Z,19.26
2016-12-07T13:55:39.360Z,19.21
2016-12-07T13:56:48.040Z,19.25
2016-12-07T13:57:56.778Z,19.26
2016-12-07T13:59:06.090Z,19.29
2016-12-07T14:00:14.905Z,19.22
2016-12-07T14:01:23.623Z,19.25
2016-12-07T14:02:32.302Z,19.22
2016-12-07T14:03:41.622Z,19.18
2016-12-07T14:04:50.630Z,19.22
2016-12-07T14:05:59.935Z,19.22
2016-12-07T14:07:08.636Z,19.28
2016-12-07T14:08:17.624Z,19.18
2016-12-07T14:09:26.611Z,19.13
2016-12-07T14:10:35.904Z,19.18
2016-12-07T14:11:45.601Z,19.19
2016-12-07T14:12:54.926Z,19.22
2016-12-07T14:14:04.579Z,19.22
2016-12-07T14:15:13.321Z,19.26
2016-12-07T14:16:23.259Z,19.22
2016-12-07T14:17:32.743Z,19.26
2016-12-07T14:18:41.730Z,19.16
2016-12-07T14:19:50.724Z,19.14
2016-12-07T14:20:59.720Z,19.11
2016-12-07T14:22:09.031Z,19.11
2016-12-07T14:23:18.327Z,19.1
2016-12-07T14:24:27.022Z,19.16
2016-12-07T14:25:35.748Z,19.1
2016-12-07T14:26:44.434Z,19.13
2016-12-07T14:27:53.171Z,19.13
2016-12-07T14:29:02.269Z,19.11
2016-12-07T14:30:10.975Z,19.13
2016-12-07T14:31:19.676Z,19.14
2016-12-07T14:32:28.692Z,19.11
2016-12-07T14:33:37.676Z,19.11
2016-12-07T14:34:47.154Z,19.11
2016-12-07T14:35:57.067Z,19.08
2016-12-07T14:37:06.079Z,19.13
2016-12-07T14:38:15.080Z,19.11
2016-12-07T14:39:23.790Z,19.1
2016-12-07T14:40:33.185Z,19.08
2016-12-07T14:41:42.184Z,19.08
2016-12-07T14:42:51.202Z,19.08
2016-12-07T14:43:59.884Z,19.06
2016-12-07T14:45:09.186Z,19.13
2016-12-07T14:46:18.595Z,19.08
2016-12-07T14:47:27.938Z,19.1
2016-12-07T14:48:36.616Z,19.08
2016-12-07T14:49:45.627Z,19.07
2016-12-07T14:50:54.940Z,19.04
2016-12-07T14:52:03.648Z,19.07
2016-12-07T14:53:12.962Z,19.04
2016-12-07T14:54:22.563Z,19.08